This is the latest recevied weather packets stored in our database for station/object K9VSK-9. If no packets are shown the sender has not sent any weather packets the latest 10 day(s).
| Time | Temp. | Humidity | Pressure | Rain* | Wind** | Luminosity | Snow |
|---|---|---|---|---|---|---|---|
| 1788041748 | 25.56° C | 81% | 1017 hPa | 0 mm | - | - | - |
| 1788041565 | 25.56° C | 81% | 1017 hPa | 0 mm | - | - | - |
| 1788040364 | 25.56° C | 78% | 1016.9 hPa | 0 mm | - | - | - |
| 1788040065 | 25.56° C | 79% | 1016.9 hPa | 0 mm | - | - | - |
| 1788039776 | 26.11° C | 78% | 1016.8 hPa | 0 mm | - | - | - |
| 1788039763 | 25.56° C | 77% | 1016.7 hPa | 0 mm | - | - | - |
| 1788039462 | 26.11° C | 78% | 1016.8 hPa | 0 mm | - | - | - |
| 1788039163 | 26.11° C | 78% | 1016.7 hPa | 0 mm | - | - | - |
| 1788038863 | 26.11° C | 79% | 1017.1 hPa | 0 mm | - | - | - |
| 1788038261 | 25.56° C | 80% | 1017.4 hPa | 0 mm | - | - | - |
| 1788037962 | 25.56° C | 80% | 1017.6 hPa | 0 mm | - | - | - |
| 1788037660 | 25.56° C | 80% | 1017.8 hPa | 0 mm | - | - | - |
| 1788037361 | 25° C | 80% | 1017.9 hPa | 0 mm | - | - | - |
| 1788037061 | 25° C | 81% | 1018.1 hPa | 0 mm | - | - | - |
| 1788037036 | 25° C | 80% | 1017.9 hPa | 0 mm | - | - | - |
| 1788036760 | 25° C | 80% | 1017.9 hPa | 0 mm | - | - | - |
| 1788036654 | 25° C | 80% | 1018.2 hPa | 0 mm | - | - | - |
| 1788036471 | 25° C | 79% | 1018.1 hPa | 0 mm | - | - | - |
| 1788036460 | 25° C | 80% | 1018.2 hPa | 0 mm | - | - | - |
| 1788036160 | 25° C | 79% | 1018.1 hPa | 0 mm | - | - | - |
| 1788036100 | 25° C | 79% | 1018.1 hPa | 0 mm | - | - | - |
| 1788035860 | 25° C | 79% | 1018.1 hPa | 0 mm | - | - | - |
| 1788035558 | 25° C | 77% | 1018.1 hPa | 0 mm | - | - | - |
| 1788035259 | 25.56° C | 79% | 1018.3 hPa | 0 mm | - | - | - |
| 1788035177 | 25.56° C | 79% | 1018.4 hPa | 0 mm | - | - | - |
* Rain latest hour (hover to see other rain measurements)
** Current wind speed in m/s (hover to see current wind gust speed)